Terminal Aerodrome Forecast
Issued by NWS Missoula, MT

Current Version | Previous Version | Text Only | Print | Product List | Glossary On
Versions: 1 2 3 4 5 6 7 8 9 10 11 12 13 14
000
FTUS45 KMSO 221726
TAFBTM
TAF
KBTM 221726Z 2218/2318 VRB06KT P6SM SCT150
     FM230200 36012G20KT 4SM -SHRA BKN050 OVC080
     FM231000 31014G24KT 4SM -SN BKN020 OVC040=

USA.gov is the U.S. government's official web portal to all federal, state and local government web resources and services.